Time;durP1;ratioP1;P1;durP2;ratioP2;P2;SDS_P1;SDS_P2;PMS_P1;PMS_P2;Temp;Humidity;BMP_temperature;BMP_pressure;BME280_temperature;BME280_humidity;BME280_pressure;Samples;Min_cycle;Max_cycle;Signal;HPM_P1;HPM_P2
2022/10/04 00:01:50;;;;;;;2.08;1.70;;;;;;;;;;6217551;23;20067;-84
2022/10/04 00:04:28;;;;;;;2.40;2.15;;;;;;;;;;6217170;23;20005;-83
2022/10/04 00:07:13;;;;;;;2.75;2.38;;;;;;;;;;6217336;23;20054;-84
2022/10/04 00:09:48;;;;;;;3.13;2.80;;;;;;;;;;6217142;23;20017;-84
2022/10/04 00:12:38;;;;;;;3.13;2.17;;;;;;;;;;6217126;23;20028;-82
2022/10/04 00:15:36;;;;;;;2.40;2.17;;;;;;;;;;6217243;23;20076;-81
2022/10/04 00:18:05;;;;;;;3.40;2.30;;;;;;;;;;6152175;23;20016;-84
2022/10/04 00:20:49;;;;;;;2.20;2.00;;;;;;;;;;6217296;23;20228;-82
2022/10/04 00:23:27;;;;;;;2.13;1.83;;;;;;;;;;6217145;23;20032;-82
2022/10/04 00:25:56;;;;;;;2.63;2.42;;;;;;;;;;6215490;23;20005;-84
2022/10/04 00:28:24;;;;;;;5.57;3.47;;;;;;;;;;6217108;23;20004;-81
2022/10/04 00:31:08;;;;;;;3.58;2.60;;;;;;;;;;6217115;23;20001;-81
2022/10/04 00:33:38;;;;;;;4.97;3.03;;;;;;;;;;6190529;23;20012;-84
2022/10/04 00:36:22;;;;;;;;;;;;;;;;;;6217431;23;20062;-81
2022/10/04 00:39:06;;;;;;;2.85;2.40;;;;;;;;;;6190418;23;20263;-81
2022/10/04 00:41:40;;;;;;;3.17;2.10;;;;;;;;;;6217183;23;20004;-82
2022/10/04 00:44:14;;;;;;;5.53;2.65;;;;;;;;;;6216929;23;20309;-81
2022/10/04 00:46:42;;;;;;;3.25;2.72;;;;;;;;;;6216551;23;20055;-83
2022/10/04 00:49:09;;;;;;;2.70;2.50;;;;;;;;;;6189982;23;20031;-84
2022/10/04 00:51:44;;;;;;;3.83;2.50;;;;;;;;;;6216579;23;20348;-82
2022/10/04 00:54:12;;;;;;;4.00;2.60;;;;;;;;;;6190286;23;20031;-82
2022/10/04 00:56:37;;;;;;;2.90;2.58;;;;;;;;;;6189932;23;20095;-82
2022/10/04 00:59:31;;;;;;;2.50;2.30;;;;;;;;;;6216830;23;19997;-83
2022/10/04 01:02:16;;;;;;;3.40;3.10;;;;;;;;;;6217093;23;20009;-84
2022/10/04 01:04:56;;;;;;;2.65;2.40;;;;;;;;;;6216796;23;20008;-82
2022/10/04 01:07:25;;;;;;;;;;;;;;;;;;6217192;23;20000;-84
2022/10/04 01:09:55;;;;;;;3.67;2.97;;;;;;;;;;6216561;23;19916;-84
2022/10/04 01:12:40;;;;;;;4.13;3.10;;;;;;;;;;6216867;23;20004;-81
2022/10/04 01:15:13;;;;;;;2.47;2.17;;;;;;;;;;6189971;23;20039;-81
2022/10/04 01:17:39;;;;;;;2.30;2.10;;;;;;;;;;6216676;23;20009;-82
2022/10/04 01:20:31;;;;;;;2.40;2.20;;;;;;;;;;6216760;23;20383;-82
2022/10/04 01:22:56;;;;;;;3.15;2.47;;;;;;;;;;6216971;23;20000;-82
2022/10/04 01:25:41;;;;;;;4.07;2.45;;;;;;;;;;6216412;23;20087;-82
2022/10/04 01:28:07;;;;;;;3.05;2.45;;;;;;;;;;6216486;23;20005;-81
2022/10/04 01:30:33;;;;;;;2.47;2.28;;;;;;;;;;6216537;23;20050;-81
2022/10/04 01:32:58;;;;;;;2.42;2.22;;;;;;;;;;6216439;23;20039;-83
2022/10/04 01:35:24;;;;;;;2.85;2.50;;;;;;;;;;6216431;23;20005;-81
2022/10/04 01:37:49;;;;;;;3.65;2.10;;;;;;;;;;6216604;23;20059;-84
2022/10/04 01:40:15;;;;;;;2.30;1.48;;;;;;;;;;6189982;23;20008;-82
2022/10/04 01:42:49;;;;;;;2.80;2.60;;;;;;;;;;6216420;23;20001;-84
2022/10/04 01:45:38;;;;;;;2.75;2.47;;;;;;;;;;6216412;23;20015;-83
2022/10/04 01:48:11;;;;;;;3.17;2.50;;;;;;;;;;6216349;23;20420;-83
2022/10/04 01:50:50;;;;;;;3.33;2.60;;;;;;;;;;6216460;23;20007;-84
2022/10/04 01:53:20;;;;;;;2.75;2.50;;;;;;;;;;6216442;23;20001;-83
2022/10/04 01:56:09;;;;;;;2.67;2.40;;;;;;;;;;6216410;23;20054;-81
2022/10/04 01:58:48;;;;;;;2.50;2.30;;;;;;;;;;6216419;23;20447;-82
2022/10/04 02:01:26;;;;;;;5.97;3.00;;;;;;;;;;6216204;23;20003;-82
2022/10/04 02:04:00;;;;;;;2.65;2.13;;;;;;;;;;6189832;23;20032;-84
2022/10/04 02:06:27;;;;;;;1.92;1.83;;;;;;;;;;6216455;23;20024;-84
2022/10/04 02:08:56;;;;;;;3.20;2.20;;;;;;;;;;6215447;23;20454;-82
2022/10/04 02:11:23;;;;;;;3.65;2.50;;;;;;;;;;6216337;23;20024;-81
2022/10/04 02:13:54;;;;;;;3.03;2.30;;;;;;;;;;6216178;23;20004;-83
2022/10/04 02:16:20;;;;;;;2.15;1.80;;;;;;;;;;6216137;23;20004;-82
2022/10/04 02:18:48;;;;;;;5.70;2.42;;;;;;;;;;6216074;23;20011;-82
2022/10/04 02:21:15;;;;;;;2.85;2.33;;;;;;;;;;6189595;23;20123;-81
2022/10/04 02:23:42;;;;;;;2.60;2.10;;;;;;;;;;6216230;23;20084;-80
2022/10/04 02:26:09;;;;;;;2.67;2.03;;;;;;;;;;6215982;23;20055;-81
2022/10/04 02:28:35;;;;;;;2.13;1.92;;;;;;;;;;6215918;23;20035;-81
2022/10/04 02:33:49;;;;;;;3.47;2.00;;;;;;;;;;6216389;23;20008;-81
2022/10/04 02:36:16;;;;;;;2.50;2.30;;;;;;;;;;6215799;23;20008;-81
2022/10/04 02:38:44;;;;;;;2.95;2.38;;;;;;;;;;6189493;23;20007;-82
2022/10/04 02:41:23;;;;;;;2.30;2.10;;;;;;;;;;6189509;23;20001;-83
2022/10/04 02:44:07;;;;;;;2.13;1.80;;;;;;;;;;6216024;23;20034;-82
2022/10/04 02:46:40;;;;;;;3.17;1.98;;;;;;;;;;6215857;23;20075;-81
2022/10/04 02:49:17;;;;;;;1.80;1.70;;;;;;;;;;6189266;23;20339;-83
2022/10/04 02:51:49;;;;;;;2.38;1.92;;;;;;;;;;6214482;23;20004;-84
2022/10/04 02:54:20;;;;;;;2.25;1.70;;;;;;;;;;6215795;23;19996;-81
2022/10/04 02:56:53;;;;;;;1.90;1.80;;;;;;;;;;6216001;23;20080;-82
2022/10/04 02:59:19;;;;;;;2.33;1.90;;;;;;;;;;6189360;23;20079;-83
2022/10/04 03:01:59;;;;;;;2.15;1.75;;;;;;;;;;6189309;23;20035;-82
2022/10/04 03:04:38;;;;;;;2.05;1.95;;;;;;;;;;6214203;23;20001;-82
2022/10/04 03:07:06;;;;;;;2.63;1.70;;;;;;;;;;6215928;23;20502;-81
2022/10/04 03:09:35;;;;;;;2.35;1.95;;;;;;;;;;6215745;23;20008;-80
2022/10/04 03:12:03;;;;;;;2.20;2.00;;;;;;;;;;6189132;23;20008;-82
2022/10/04 03:14:30;;;;;;;2.70;1.70;;;;;;;;;;6215625;23;20005;-81
2022/10/04 03:17:00;;;;;;;2.08;1.88;;;;;;;;;;6215813;23;19996;-81
2022/10/04 03:19:28;;;;;;;2.80;1.80;;;;;;;;;;6214689;23;20024;-81
2022/10/04 03:21:58;;;;;;;3.53;2.08;;;;;;;;;;6217666;23;20079;-80
2022/10/04 03:24:29;;;;;;;2.00;1.80;;;;;;;;;;6217626;23;20000;-81
2022/10/04 03:26:57;;;;;;;2.25;1.65;;;;;;;;;;6217798;23;20439;-81
2022/10/04 03:29:26;;;;;;;3.85;2.30;;;;;;;;;;6217566;23;20008;-83
2022/10/04 03:31:57;;;;;;;1.95;1.80;;;;;;;;;;6217634;23;20443;-84
2022/10/04 03:34:32;;;;;;;2.65;1.90;;;;;;;;;;6190896;23;20317;-80
2022/10/04 03:36:59;;;;;;;2.10;1.55;;;;;;;;;;6217622;23;20005;-81
2022/10/04 03:39:32;;;;;;;1.73;1.63;;;;;;;;;;6217419;23;20420;-82
2022/10/04 03:42:01;;;;;;;1.80;1.70;;;;;;;;;;6190941;23;20054;-83
2022/10/04 03:44:27;;;;;;;2.00;1.90;;;;;;;;;;6190851;23;20339;-81
2022/10/04 03:46:53;;;;;;;2.40;2.13;;;;;;;;;;6217561;23;20028;-82
2022/10/04 03:49:32;;;;;;;2.10;1.90;;;;;;;;;;6217260;23;20000;-82
2022/10/04 03:51:59;;;;;;;2.05;1.63;;;;;;;;;;6217610;23;20028;-82
2022/10/04 03:54:28;;;;;;;3.50;2.13;;;;;;;;;;6190664;23;20011;-82
2022/10/04 03:56:55;;;;;;;2.40;2.13;;;;;;;;;;6217408;23;20001;-82
2022/10/04 03:59:24;;;;;;;2.30;2.05;;;;;;;;;;6217555;23;20373;-82
2022/10/04 04:02:18;;;;;;;2.13;1.95;;;;;;;;;;6217357;23;20468;-81
2022/10/04 04:05:12;;;;;;;2.35;1.90;;;;;;;;;;6217341;23;20072;-81
2022/10/04 04:07:54;;;;;;;2.38;1.92;;;;;;;;;;6217133;23;20035;-81
2022/10/04 04:10:28;;;;;;;1.83;1.73;;;;;;;;;;6190401;23;20379;-81
2022/10/04 04:13:08;;;;;;;1.98;1.73;;;;;;;;;;6217307;23;20084;-81
2022/10/04 04:15:33;;;;;;;2.20;2.00;;;;;;;;;;6217007;23;20001;-81
2022/10/04 04:18:03;;;;;;;2.90;1.60;;;;;;;;;;6217115;23;20313;-82
2022/10/04 04:20:35;;;;;;;1.60;1.50;;;;;;;;;;6191390;23;20089;-81
2022/10/04 04:23:09;;;;;;;1.95;1.65;;;;;;;;;;6217348;23;20012;-82
2022/10/04 04:25:38;;;;;;;3.90;1.80;;;;;;;;;;6216986;23;20067;-83
2022/10/04 04:28:27;;;;;;;2.03;1.88;;;;;;;;;;6217063;23;20030;-83
2022/10/04 04:30:57;;;;;;;1.75;1.55;;;;;;;;;;6215833;23;20015;-81
2022/10/04 04:33:37;;;;;;;2.03;1.58;;;;;;;;;;6217096;23;20003;-82
2022/10/04 04:36:05;;;;;;;2.08;1.88;;;;;;;;;;6216971;23;20004;-82
2022/10/04 04:38:31;;;;;;;2.83;2.05;;;;;;;;;;6217006;23;20028;-84
2022/10/04 04:41:08;;;;;;;2.75;2.00;;;;;;;;;;6190389;23;20416;-82
2022/10/04 04:43:34;;;;;;;2.22;1.92;;;;;;;;;;6217001;23;20000;-82
2022/10/04 04:46:00;;;;;;;1.83;1.70;;;;;;;;;;6190530;23;20331;-84
2022/10/04 04:48:26;;;;;;;2.25;1.65;;;;;;;;;;6216894;23;20044;-83
2022/10/04 04:50:55;;;;;;;2.20;2.00;;;;;;;;;;6217118;23;20029;-82
2022/10/04 04:53:29;;;;;;;2.40;1.80;;;;;;;;;;6215299;23;20423;-81
2022/10/04 04:56:05;;;;;;;1.85;1.75;;;;;;;;;;6190303;23;20261;-82
2022/10/04 04:58:31;;;;;;;1.90;1.40;;;;;;;;;;6217014;23;20004;-78
2022/10/04 05:01:07;;;;;;;1.63;1.52;;;;;;;;;;6216891;23;20005;-78
2022/10/04 05:03:33;;;;;;;1.90;1.65;;;;;;;;;;6217942;23;20344;-80
2022/10/04 05:06:01;;;;;;;1.85;1.75;;;;;;;;;;6217522;23;20001;-79
2022/10/04 05:08:32;;;;;;;1.88;1.70;;;;;;;;;;6216826;23;20008;-80
2022/10/04 05:11:15;;;;;;;2.40;1.80;;;;;;;;;;6217211;23;20032;-89
2022/10/04 05:14:08;;;;;;;1.85;1.70;;;;;;;;;;6190379;23;20008;-90
2022/10/04 05:16:47;;;;;;;4.97;1.95;;;;;;;;;;6217267;23;20380;-80
2022/10/04 05:19:20;;;;;;;;;;;;;;;;;;6217533;23;20031;-79
2022/10/04 05:21:47;;;;;;;1.65;1.55;;;;;;;;;;6217266;23;20382;-80
2022/10/04 05:24:33;;;;;;;1.70;1.60;;;;;;;;;;6217653;23;20000;-86
2022/10/04 05:27:05;;;;;;;1.58;1.48;;;;;;;;;;6216444;23;20012;-87
2022/10/04 05:29:35;;;;;;;1.50;1.40;;;;;;;;;;6190273;23;20012;-79
2022/10/04 05:32:43;;;;;;;1.98;1.60;;;;;;;;;;6216319;23;20424;-79
2022/10/04 05:35:16;;;;;;;2.90;1.90;;;;;;;;;;6216413;23;20004;-86
2022/10/04 05:38:22;;;;;;;1.90;1.70;;;;;;;;;;6216312;23;20013;-80
2022/10/04 05:40:55;;;;;;;1.95;1.50;;;;;;;;;;6216745;23;20008;-86
2022/10/04 05:43:34;;;;;;;1.80;1.70;;;;;;;;;;6216552;23;20043;-81
2022/10/04 05:46:20;;;;;;;3.95;2.70;;;;;;;;;;6216118;23;19997;-81
2022/10/04 05:49:07;;;;;;;2.40;2.20;;;;;;;;;;6189682;23;20069;-79
2022/10/04 05:51:46;;;;;;;1.92;1.73;;;;;;;;;;6189649;23;20009;-83
2022/10/04 05:54:12;;;;;;;3.92;2.40;;;;;;;;;;6216497;23;20007;-81
2022/10/04 05:57:19;;;;;;;2.40;1.80;;;;;;;;;;6216258;23;20004;-80
2022/10/04 06:00:12;;;;;;;2.47;1.60;;;;;;;;;;6216215;23;20008;-80
2022/10/04 06:03:14;;;;;;;3.72;1.90;;;;;;;;;;6189628;23;20008;-79
2022/10/04 06:05:48;;;;;;;2.10;1.90;;;;;;;;;;6215972;23;20028;-79
2022/10/04 06:08:26;;;;;;;2.25;2.05;;;;;;;;;;6215755;23;20028;-80
2022/10/04 06:11:08;;;;;;;2.53;2.10;;;;;;;;;;6216109;23;20007;-77
2022/10/04 06:14:10;;;;;;;2.00;1.80;;;;;;;;;;6216007;23;20147;-79
2022/10/04 06:16:48;;;;;;;1.70;1.60;;;;;;;;;;6217119;23;20009;-79
2022/10/04 06:19:52;;;;;;;3.28;2.50;;;;;;;;;;6215986;23;20076;-78
2022/10/04 06:22:21;;;;;;;3.85;2.50;;;;;;;;;;6215919;23;20413;-78
2022/10/04 06:24:55;;;;;;;;;;;;;;;;;;6216254;23;20364;-79
2022/10/04 06:28:02;;;;;;;1.50;1.40;;;;;;;;;;6215660;23;20334;-81
2022/10/04 06:30:35;;;;;;;2.00;1.80;;;;;;;;;;6214355;23;20012;-78
2022/10/04 06:33:23;;;;;;;2.40;1.75;;;;;;;;;;6215863;23;20005;-79
2022/10/04 06:36:11;;;;;;;2.97;1.88;;;;;;;;;;6215886;23;19993;-81
2022/10/04 06:38:47;;;;;;;4.47;2.00;;;;;;;;;;6215891;23;20004;-80
2022/10/04 06:41:44;;;;;;;2.35;1.95;;;;;;;;;;6215832;23;20000;-81
2022/10/04 06:44:41;;;;;;;2.38;1.83;;;;;;;;;;6216212;23;20001;-81
2022/10/04 06:47:43;;;;;;;2.22;1.90;;;;;;;;;;6216040;23;20323;-80
2022/10/04 06:50:17;;;;;;;3.83;1.67;;;;;;;;;;6215663;23;20008;-81
2022/10/04 06:53:02;;;;;;;2.50;1.70;;;;;;;;;;6216002;23;20013;-79
2022/10/04 06:56:08;;;;;;;2.22;2.03;;;;;;;;;;6217230;23;20359;-77
2022/10/04 06:59:01;;;;;;;1.70;1.60;;;;;;;;;;6216748;23;20008;-77
2022/10/04 07:01:29;;;;;;;3.25;1.83;;;;;;;;;;6218167;23;20443;-90
2022/10/04 07:04:16;;;;;;;2.42;1.67;;;;;;;;;;6191225;23;20016;-77
2022/10/04 07:07:23;;;;;;;3.30;1.73;;;;;;;;;;6217813;23;20005;-77
2022/10/04 07:09:53;;;;;;;1.63;1.52;;;;;;;;;;6217765;23;20013;-77
2022/10/04 07:12:19;;;;;;;1.90;1.60;;;;;;;;;;6217748;23;20001;-78
2022/10/04 07:14:50;;;;;;;3.65;1.50;;;;;;;;;;6217673;23;20036;-79
2022/10/04 07:17:21;;;;;;;1.70;1.60;;;;;;;;;;6190949;23;20008;-77
2022/10/04 07:19:49;;;;;;;3.45;1.60;;;;;;;;;;6217805;23;20008;-77
2022/10/04 07:22:36;;;;;;;1.48;1.38;;;;;;;;;;6217656;23;19997;-77
2022/10/04 07:25:23;;;;;;;2.67;1.52;;;;;;;;;;6217671;23;20003;-77
2022/10/04 07:29:19;;;;;;;2.97;1.98;;;;;;;;;;6217249;23;20427;-77
2022/10/04 07:30:45;;;;;;;1.70;1.50;;;;;;;;;;6217366;23;20000;-79
2022/10/04 07:33:17;;;;;;;2.38;1.50;;;;;;;;;;6217682;23;19997;-78
2022/10/04 07:35:53;;;;;;;2.97;1.60;;;;;;;;;;6217322;23;20036;-78
2022/10/04 07:38:24;;;;;;;1.60;1.50;;;;;;;;;;6217482;23;20008;-78
2022/10/04 07:41:32;;;;;;;3.20;1.65;;;;;;;;;;6190828;23;20032;-83
2022/10/04 07:44:03;;;;;;;2.30;1.38;;;;;;;;;;6201379;23;20009;-78
2022/10/04 07:46:47;;;;;;;4.53;1.70;;;;;;;;;;6190700;23;20004;-84
2022/10/04 07:49:15;;;;;;;1.95;1.85;;;;;;;;;;6217343;23;20008;-83
2022/10/04 07:52:09;;;;;;;1.50;1.40;;;;;;;;;;6217179;23;20004;-78
2022/10/04 07:54:53;;;;;;;2.17;1.63;;;;;;;;;;6217329;23;20055;-81
2022/10/04 07:57:46;;;;;;;1.75;1.35;;;;;;;;;;6217340;23;20000;-78
2022/10/04 08:00:18;;;;;;;1.42;1.10;;;;;;;;;;6217373;23;20001;-78
2022/10/04 08:03:18;;;;;;;1.83;1.45;;;;;;;;;;6190443;23;20371;-78
2022/10/04 08:05:50;;;;;;;2.08;1.50;;;;;;;;;;6217313;23;19996;-84
2022/10/04 11:33:02;;;;;;;1.67;1.52;;;;;;;;;;6264667;22;20326;-85
2022/10/04 11:35:57;;;;;;;1.60;1.20;;;;;;;;;;6276761;22;20061;-84
2022/10/04 11:38:55;;;;;;;1.50;1.40;;;;;;;;;;6249550;22;20103;-84
2022/10/04 11:41:50;;;;;;;2.20;1.50;;;;;;;;;;6269071;22;20442;-84
2022/10/04 11:44:29;;;;;;;1.98;1.67;;;;;;;;;;6248005;23;20719;-83
2022/10/04 11:47:26;;;;;;;4.32;2.13;;;;;;;;;;6247853;23;20000;-85
2022/10/04 18:05:51;;;;;;;4.53;4.05;;;;;;;;;;6290938;22;20031;-82
2022/10/04 18:08:38;;;;;;;5.95;4.72;;;;;;;;;;6277004;22;20042;-75
2022/10/04 18:11:14;;;;;;;6.63;4.60;;;;;;;;;;6277116;22;20012;-76
2022/10/04 18:13:49;;;;;;;4.38;3.97;;;;;;;;;;6249991;22;20004;-77
2022/10/04 18:16:46;;;;;;;7.13;4.88;;;;;;;;;;6246465;23;20079;-77
2022/10/04 18:19:43;;;;;;;8.27;6.88;;;;;;;;;;6246477;23;20004;-77
2022/10/04 18:22:14;;;;;;;9.85;7.70;;;;;;;;;;6219455;23;20014;-77
2022/10/04 18:24:45;;;;;;;6.65;6.05;;;;;;;;;;6246294;23;20008;-78
2022/10/04 18:27:20;;;;;;;6.65;6.05;;;;;;;;;;6246523;23;20008;-80
2022/10/04 18:30:10;;;;;;;6.35;5.70;;;;;;;;;;6246239;23;20300;-78
2022/10/04 18:32:36;;;;;;;4.93;4.53;;;;;;;;;;6246235;22;19996;-80
2022/10/04 18:35:26;;;;;;;4.93;4.35;;;;;;;;;;6246386;23;20004;-81
2022/10/04 18:38:03;;;;;;;4.97;4.45;;;;;;;;;;6246419;23;20000;-80
2022/10/04 18:40:32;;;;;;;5.70;4.20;;;;;;;;;;6246379;23;20030;-78
2022/10/04 18:43:00;;;;;;;5.20;4.72;;;;;;;;;;6246163;22;20004;-77
2022/10/04 18:45:33;;;;;;;5.22;4.72;;;;;;;;;;6246510;23;20100;-77
2022/10/04 18:48:14;;;;;;;5.82;4.78;;;;;;;;;;6246219;23;20004;-78
2022/10/04 18:50:45;;;;;;;7.25;4.65;;;;;;;;;;6246769;23;20063;-78
2022/10/04 18:53:33;;;;;;;4.97;4.57;;;;;;;;;;6248270;22;19996;-78
2022/10/04 18:55:58;;;;;;;4.95;4.47;;;;;;;;;;6248321;23;20008;-78
2022/10/04 19:02:03;;;;;;;5.72;4.82;;;;;;;;;;6248243;23;20019;-78
2022/10/04 19:05:04;;;;;;;6.53;4.75;;;;;;;;;;6248196;23;20000;-78
2022/10/04 19:07:36;;;;;;;4.88;4.53;;;;;;;;;;6221223;23;20062;-78
2022/10/04 19:10:19;;;;;;;8.63;4.60;;;;;;;;;;6248048;23;20000;-77
2022/10/04 19:13:09;;;;;;;6.10;4.68;;;;;;;;;;6248187;22;20446;-77
2022/10/04 19:15:40;;;;;;;5.82;4.70;;;;;;;;;;6248195;23;20008;-77
2022/10/04 19:18:21;;;;;;;5.93;5.25;;;;;;;;;;6247920;23;20054;-77
2022/10/04 19:21:01;;;;;;;5.30;4.70;;;;;;;;;;6248118;23;20031;-77
2022/10/04 19:23:39;;;;;;;9.45;7.20;;;;;;;;;;6248098;22;20008;-77
2022/10/04 19:26:18;;;;;;;10.02;7.72;;;;;;;;;;6247839;23;20000;-78
2022/10/04 19:28:47;;;;;;;;;;;;;;;;;;6221598;23;20012;-78
2022/10/04 19:31:26;;;;;;;9.27;6.25;;;;;;;;;;6247980;23;19911;-78
2022/10/04 19:34:21;;;;;;;9.15;8.10;;;;;;;;;;6247662;22;20083;-78
2022/10/04 19:37:00;;;;;;;7.15;6.35;;;;;;;;;;6208355;23;20028;-78
2022/10/04 19:39:40;;;;;;;7.63;6.40;;;;;;;;;;6221006;23;20019;-79
2022/10/04 19:42:16;;;;;;;6.00;5.50;;;;;;;;;;6247786;22;20490;-79
2022/10/04 19:44:52;;;;;;;5.50;4.95;;;;;;;;;;6247713;23;20007;-79
2022/10/04 19:47:37;;;;;;;6.72;5.53;;;;;;;;;;6247827;23;20053;-79
2022/10/04 19:50:18;;;;;;;6.40;5.00;;;;;;;;;;6247813;23;20004;-79
2022/10/04 19:53:13;;;;;;;5.90;5.30;;;;;;;;;;6247820;22;20011;-79
2022/10/04 19:55:50;;;;;;;5.75;5.03;;;;;;;;;;6247673;23;20012;-78
2022/10/04 19:58:35;;;;;;;4.80;4.40;;;;;;;;;;6247729;23;20431;-79
2022/10/04 20:01:06;;;;;;;5.85;5.25;;;;;;;;;;6247587;23;20008;-79
2022/10/04 20:03:32;;;;;;;8.00;7.20;;;;;;;;;;6247502;22;20050;-79
2022/10/04 20:05:58;;;;;;;7.05;6.35;;;;;;;;;;6247391;23;20012;-79
2022/10/04 20:08:45;;;;;;;6.85;5.35;;;;;;;;;;6247534;23;20038;-80
2022/10/04 20:11:17;;;;;;;5.60;5.00;;;;;;;;;;6247557;23;20038;-80
2022/10/04 20:13:43;;;;;;;5.70;5.20;;;;;;;;;;6247469;22;20034;-80
2022/10/04 20:16:09;;;;;;;4.95;4.47;;;;;;;;;;6247468;23;20079;-80
2022/10/04 20:18:40;;;;;;;5.43;4.63;;;;;;;;;;6247546;23;20004;-80
2022/10/04 20:21:22;;;;;;;5.30;4.80;;;;;;;;;;6247445;23;20010;-79
2022/10/04 20:23:49;;;;;;;4.65;4.25;;;;;;;;;;6247391;22;20020;-81
2022/10/04 20:26:52;;;;;;;4.97;4.57;;;;;;;;;;6247459;23;20004;-80
2022/10/04 20:29:35;;;;;;;5.57;5.07;;;;;;;;;;6220429;23;20015;-79
2022/10/04 20:32:06;;;;;;;5.43;4.90;;;;;;;;;;6247369;22;20004;-80
2022/10/04 20:34:37;;;;;;;5.20;4.70;;;;;;;;;;6247472;23;20323;-80
2022/10/04 20:37:08;;;;;;;5.97;5.30;;;;;;;;;;6247295;23;20004;-79
2022/10/04 20:39:42;;;;;;;5.15;4.65;;;;;;;;;;6247438;23;20000;-79
2022/10/04 20:42:28;;;;;;;4.97;4.47;;;;;;;;;;6220418;23;20388;-79
2022/10/04 20:44:57;;;;;;;5.47;5.00;;;;;;;;;;6247319;23;20354;-79
2022/10/04 20:47:39;;;;;;;5.22;4.72;;;;;;;;;;6247143;23;20000;-79
2022/10/04 20:50:23;;;;;;;5.03;4.50;;;;;;;;;;6247172;23;20004;-79
2022/10/04 20:52:54;;;;;;;5.10;4.60;;;;;;;;;;6247207;22;20415;-79
2022/10/04 20:55:37;;;;;;;4.53;4.22;;;;;;;;;;6247278;23;20415;-79
2022/10/04 20:58:28;;;;;;;5.22;4.30;;;;;;;;;;6220227;23;20012;-79
2022/10/04 21:00:57;;;;;;;4.68;4.28;;;;;;;;;;6247158;23;20170;-79
2022/10/04 21:03:23;;;;;;;6.93;4.78;;;;;;;;;;6247168;22;20027;-79
2022/10/04 21:06:05;;;;;;;5.10;4.70;;;;;;;;;;6246815;23;20039;-79
2022/10/04 21:08:31;;;;;;;4.47;4.07;;;;;;;;;;6219820;23;20343;-81
2022/10/04 21:11:13;;;;;;;5.47;5.03;;;;;;;;;;6221050;23;20008;-80
2022/10/04 21:13:56;;;;;;;7.70;5.60;;;;;;;;;;6246586;22;20000;-79
2022/10/04 21:16:40;;;;;;;6.30;5.70;;;;;;;;;;6246883;23;20051;-80
2022/10/04 21:19:37;;;;;;;7.07;6.45;;;;;;;;;;6246831;23;20091;-79
2022/10/04 21:22:29;;;;;;;6.57;5.35;;;;;;;;;;6246986;22;20023;-79
2022/10/04 21:24:57;;;;;;;9.00;5.03;;;;;;;;;;6219689;23;20003;-80
2022/10/04 21:27:35;;;;;;;5.97;4.95;;;;;;;;;;6246753;23;19996;-80
2022/10/04 21:30:03;;;;;;;6.45;5.38;;;;;;;;;;6246688;23;20004;-80
2022/10/04 21:32:35;;;;;;;7.45;6.55;;;;;;;;;;6246541;22;20004;-80
2022/10/04 21:35:02;;;;;;;6.32;5.72;;;;;;;;;;6246831;23;20301;-80
2022/10/04 21:37:28;;;;;;;6.70;6.00;;;;;;;;;;6246823;23;20000;-80
2022/10/04 21:39:53;;;;;;;6.60;5.47;;;;;;;;;;6246843;23;20008;-79
2022/10/04 21:42:19;;;;;;;6.55;5.85;;;;;;;;;;6246782;22;20004;-79
2022/10/04 21:44:44;;;;;;;6.32;5.78;;;;;;;;;;6219922;23;20004;-79
2022/10/04 21:47:10;;;;;;;6.38;5.78;;;;;;;;;;6246726;23;20000;-79
2022/10/04 21:49:36;;;;;;;6.10;5.22;;;;;;;;;;6246719;23;20007;-80
2022/10/04 21:52:02;;;;;;;5.47;5.00;;;;;;;;;;6246446;22;20026;-80
2022/10/04 21:54:27;;;;;;;5.90;5.32;;;;;;;;;;6247408;23;20011;-80
2022/10/04 21:56:53;;;;;;;5.65;5.15;;;;;;;;;;6246701;23;20322;-79
2022/10/04 21:59:19;;;;;;;5.30;4.90;;;;;;;;;;6219736;23;20054;-80
2022/10/04 22:01:45;;;;;;;6.75;6.15;;;;;;;;;;6246399;22;20028;-79
2022/10/04 22:04:11;;;;;;;8.57;7.43;;;;;;;;;;6246699;23;19996;-79
2022/10/04 22:06:37;;;;;;;6.95;6.20;;;;;;;;;;6246322;23;20057;-80
2022/10/04 22:09:05;;;;;;;7.82;7.13;;;;;;;;;;6246524;23;20083;-79
2022/10/04 22:11:30;;;;;;;7.70;6.20;;;;;;;;;;6246533;23;20505;-79
2022/10/04 22:13:56;;;;;;;6.93;6.22;;;;;;;;;;6246636;22;19996;-80
2022/10/04 22:16:21;;;;;;;7.55;5.85;;;;;;;;;;6246564;23;20050;-80
2022/10/04 22:18:47;;;;;;;7.32;6.10;;;;;;;;;;6246460;23;20004;-80
2022/10/04 22:21:12;;;;;;;6.18;5.68;;;;;;;;;;6219547;23;20014;-80
2022/10/04 22:23:41;;;;;;;6.13;5.63;;;;;;;;;;6246385;22;20020;-80
2022/10/04 22:26:15;;;;;;;7.07;6.37;;;;;;;;;;6246441;23;20028;-80
2022/10/04 22:28:46;;;;;;;6.72;5.55;;;;;;;;;;6246293;23;20004;-80
2022/10/04 22:31:13;;;;;;;6.93;6.15;;;;;;;;;;6246497;23;20407;-80
2022/10/04 22:33:41;;;;;;;6.15;5.55;;;;;;;;;;6246348;22;20003;-79
2022/10/04 22:36:14;;;;;;;6.85;5.70;;;;;;;;;;6246130;23;20000;-80
2022/10/04 22:38:48;;;;;;;5.35;4.85;;;;;;;;;;6246350;23;20072;-78
2022/10/04 22:41:17;;;;;;;5.00;4.57;;;;;;;;;;6246364;23;19996;-78
